createdAt,value
2022-09-16T00:29:12.824Z,0
2022-09-16T00:29:53.288Z,0
2022-09-16T00:30:33.847Z,0
2022-09-16T00:31:14.430Z,0
2022-09-16T00:31:54.887Z,0
2022-09-16T00:32:35.318Z,0
2022-09-16T00:33:15.790Z,0
2022-09-16T00:33:56.312Z,0
2022-09-16T00:34:36.787Z,0
2022-09-16T00:35:57.742Z,0
2022-09-16T00:42:42.568Z,0
2022-09-16T00:43:23.080Z,0
2022-09-16T00:44:03.567Z,0
2022-09-16T00:44:44.093Z,0
2022-09-16T00:46:05.068Z,0
2022-09-16T00:46:45.671Z,0
2022-09-16T00:47:26.066Z,0
2022-09-16T00:48:06.519Z,0
2022-09-16T00:48:46.982Z,0
2022-09-16T00:49:27.458Z,0
2022-09-16T00:56:52.947Z,0
2022-09-16T00:57:33.439Z,0
2022-09-16T00:58:13.919Z,0
2022-09-16T00:58:54.530Z,0
2022-09-16T00:59:34.993Z,0
2022-09-16T01:00:15.496Z,0
2022-09-16T01:00:56.004Z,0
2022-09-16T01:01:36.526Z,0
2022-09-16T01:02:17.076Z,0
2022-09-16T01:02:57.446Z,0
2022-09-16T01:10:23.563Z,0
2022-09-16T01:11:03.429Z,0
2022-09-16T01:11:43.950Z,0
2022-09-16T01:12:24.391Z,0
2022-09-16T01:13:04.929Z,0
2022-09-16T01:13:45.393Z,0
2022-09-16T01:14:25.871Z,0
2022-09-16T01:15:06.422Z,0
2022-09-16T01:15:46.949Z,0
2022-09-16T01:16:27.413Z,0
2022-09-16T01:23:52.803Z,0
2022-09-16T01:24:33.211Z,0
2022-09-16T01:25:13.660Z,0
2022-09-16T01:25:54.161Z,0
2022-09-16T01:26:34.675Z,0
2022-09-16T01:27:15.166Z,0
2022-09-16T01:27:55.664Z,0
2022-09-16T01:28:36.128Z,0
2022-09-16T01:29:16.553Z,0
2022-09-16T01:29:57.054Z,0
2022-09-16T01:30:37.565Z,0
2022-09-16T01:37:22.523Z,0
2022-09-16T01:38:03.099Z,0
2022-09-16T01:38:43.608Z,0
2022-09-16T01:39:23.991Z,0
2022-09-16T01:40:04.505Z,0
2022-09-16T01:40:44.953Z,0
2022-09-16T01:41:25.428Z,0
2022-09-16T01:42:05.892Z,0
2022-09-16T01:42:46.396Z,0
2022-09-16T01:43:26.907Z,0
2022-09-16T01:44:07.401Z,0
2022-09-16T01:51:32.873Z,0
2022-09-16T01:52:13.399Z,0
2022-09-16T01:52:53.866Z,0
2022-09-16T01:53:34.386Z,0
2022-09-16T01:54:14.881Z,0
2022-09-16T01:54:55.469Z,0
2022-09-16T01:55:35.945Z,0
2022-09-16T01:56:16.430Z,0
2022-09-16T01:56:56.963Z,0
2022-09-16T01:57:37.455Z,0
2022-09-16T02:05:59.995Z,0
2022-09-16T02:06:40.472Z,0
2022-09-16T02:07:20.937Z,0
2022-09-16T02:08:01.406Z,0
2022-09-16T02:08:41.899Z,0
2022-09-16T02:09:22.405Z,0
2022-09-16T02:10:02.868Z,0
2022-09-16T02:10:43.337Z,0
2022-09-16T02:11:23.831Z,0
2022-09-16T02:12:04.294Z,0
2022-09-16T02:12:44.786Z,0
2022-09-16T02:19:29.682Z,0
2022-09-16T02:20:10.116Z,0
2022-09-16T02:20:50.592Z,0
2022-09-16T02:21:31.068Z,0
2022-09-16T02:22:11.582Z,0
2022-09-16T02:22:52.038Z,0
2022-09-16T02:23:32.503Z,0
2022-09-16T02:24:13.000Z,0
2022-09-16T02:24:53.490Z,0
2022-09-16T02:25:34.027Z,0
2022-09-16T02:26:14.467Z,0
2022-09-16T02:26:54.941Z,0
2022-09-16T02:33:39.956Z,0
2022-09-16T02:34:20.455Z,0
2022-09-16T02:35:00.933Z,0
2022-09-16T02:35:41.438Z,0
2022-09-16T02:36:21.906Z,0
2022-09-16T02:37:02.386Z,0
2022-09-16T02:37:42.937Z,0
2022-09-16T02:38:23.422Z,0
2022-09-16T02:39:44.507Z,0
2022-09-16T02:45:25.121Z,0
2022-09-16T02:46:05.652Z,0
2022-09-16T02:46:46.231Z,0
2022-09-16T02:47:26.617Z,0
2022-09-16T02:48:07.129Z,0
2022-09-16T02:48:47.595Z,0
2022-09-16T02:49:28.112Z,0
2022-09-16T02:50:08.601Z,0
2022-09-16T02:50:49.093Z,0
2022-09-16T02:51:29.577Z,0
2022-09-16T02:58:54.909Z,0
2022-09-16T02:59:35.338Z,0
2022-09-16T03:00:15.805Z,0
2022-09-16T03:00:56.366Z,0
2022-09-16T03:01:36.896Z,0
2022-09-16T03:02:17.336Z,0
2022-09-16T03:02:57.960Z,0
2022-09-16T03:03:38.376Z,0
2022-09-16T03:07:32.565Z,0
2022-09-16T03:08:13.138Z,0
2022-09-16T03:08:53.832Z,0
2022-09-16T03:09:34.246Z,0
2022-09-16T03:10:14.665Z,0
2022-09-16T03:10:55.149Z,0
2022-09-16T03:11:35.625Z,0
2022-09-16T03:12:16.065Z,0
2022-09-16T03:12:56.579Z,0
2022-09-16T03:13:37.044Z,0
2022-09-16T03:14:17.568Z,0
2022-09-16T03:21:02.401Z,0
2022-09-16T03:21:43.132Z,0
2022-09-16T03:22:23.711Z,0
2022-09-16T03:23:04.165Z,0
2022-09-16T03:23:44.868Z,0
2022-09-16T03:24:25.116Z,0
2022-09-16T03:25:05.602Z,0
2022-09-16T03:25:46.096Z,0
2022-09-16T03:26:26.620Z,0
2022-09-16T03:27:07.871Z,0
2022-09-16T03:33:52.559Z,0
2022-09-16T03:34:33.045Z,0
2022-09-16T03:35:13.516Z,0
2022-09-16T03:35:53.997Z,0
2022-09-16T03:36:34.487Z,0
2022-09-16T03:37:15.091Z,0
2022-09-16T03:37:55.489Z,0
2022-09-16T03:38:35.966Z,0
2022-09-16T03:39:16.455Z,0
2022-09-16T03:39:56.980Z,0
2022-09-16T03:40:37.404Z,0
2022-09-16T03:47:22.315Z,0
2022-09-16T03:48:02.818Z,0
2022-09-16T03:48:43.377Z,0
2022-09-16T03:49:23.791Z,0
2022-09-16T03:50:04.317Z,0
2022-09-16T03:50:44.785Z,0
2022-09-16T03:52:05.904Z,0
2022-09-16T03:52:46.433Z,0
2022-09-16T03:53:26.928Z,0
2022-09-16T04:00:52.396Z,0
2022-09-16T04:01:33.010Z,0
2022-09-16T04:02:13.430Z,0
2022-09-16T04:02:53.931Z,0
2022-09-16T04:03:34.346Z,0
2022-09-16T04:04:14.839Z,0
2022-09-16T04:04:55.374Z,0
2022-09-16T04:05:35.933Z,0
2022-09-16T04:06:16.489Z,0
2022-09-16T04:06:56.992Z,0
2022-09-16T04:07:37.543Z,0
2022-09-16T04:13:42.487Z,0
2022-09-16T04:14:22.979Z,0
2022-09-16T04:15:03.463Z,0
2022-09-16T04:15:44.046Z,0
2022-09-16T04:16:24.569Z,0
2022-09-16T04:17:05.046Z,0
2022-09-16T04:17:45.583Z,0
2022-09-16T04:18:26.109Z,0
2022-09-16T04:19:07.211Z,0
2022-09-16T04:26:32.735Z,0
2022-09-16T04:27:13.227Z,0
2022-09-16T04:27:53.679Z,0
2022-09-16T04:28:34.175Z,0
2022-09-16T04:29:14.775Z,0
2022-09-16T04:29:55.145Z,0
2022-09-16T04:30:35.770Z,0
2022-09-16T04:31:16.410Z,0
2022-09-16T04:31:56.773Z,0
2022-09-16T04:32:37.279Z,0
2022-09-16T04:39:22.328Z,0
2022-09-16T04:40:04.893Z,0
2022-09-16T04:40:43.309Z,0
2022-09-16T04:41:23.819Z,4
2022-09-16T04:42:04.323Z,4
2022-09-16T04:42:44.792Z,4
2022-09-16T04:43:25.268Z,0
2022-09-16T04:44:05.737Z,4
2022-09-16T04:44:46.257Z,4
2022-09-16T04:45:26.780Z,4
2022-09-16T04:46:07.289Z,4
2022-09-16T04:52:48.597Z,12
2022-09-16T04:53:29.100Z,12
2022-09-16T04:54:09.506Z,12
2022-09-16T04:54:50.039Z,16
2022-09-16T04:55:30.515Z,16
2022-09-16T04:56:10.956Z,12
2022-09-16T04:56:51.437Z,12
2022-09-16T04:57:32.038Z,12
2022-09-16T04:58:12.510Z,16
2022-09-16T04:58:53.075Z,16
2022-09-16T05:06:20.760Z,16
2022-09-16T05:09:32.694Z,16
2022-09-16T05:10:13.217Z,16
2022-09-16T05:10:53.963Z,16
2022-09-16T05:11:34.832Z,16
2022-09-16T05:12:15.357Z,16
2022-09-16T05:15:29.113Z,16
2022-09-16T05:16:10.701Z,16
2022-09-16T05:16:50.992Z,20
2022-09-16T05:17:49.693Z,16
2022-09-16T05:18:11.900Z,20
2022-09-16T05:18:52.473Z,20
2022-09-16T05:19:33.013Z,20
2022-09-16T05:22:47.248Z,32
2022-09-16T05:23:27.740Z,32
2022-09-16T05:24:08.359Z,40
2022-09-16T05:24:48.916Z,40
2022-09-16T05:25:29.275Z,44
2022-09-16T05:26:09.847Z,48
2022-09-16T05:26:50.277Z,48
2022-09-16T05:27:30.819Z,56
2022-09-16T05:28:11.360Z,64
2022-09-16T05:28:51.905Z,68
2022-09-16T05:35:37.244Z,96
2022-09-16T05:36:17.751Z,104
2022-09-16T05:36:58.380Z,116
2022-09-16T05:37:38.764Z,128
2022-09-16T05:38:19.262Z,144
2022-09-16T05:39:21.434Z,160
2022-09-16T05:39:40.355Z,176
2022-09-16T05:40:21.090Z,212
2022-09-16T05:41:01.482Z,268
2022-09-16T05:41:42.033Z,320
2022-09-16T05:47:47.388Z,340
2022-09-16T05:48:29.665Z,328
2022-09-16T05:49:10.509Z,372
2022-09-16T05:49:51.016Z,404
2022-09-16T05:50:31.460Z,432
2022-09-16T05:51:11.931Z,472
2022-09-16T06:31:43.866Z,1248
2022-09-16T06:32:24.183Z,1312
2022-09-16T06:33:04.730Z,1376
2022-09-16T06:33:45.295Z,1392
2022-09-16T06:34:25.721Z,1380
2022-09-16T06:35:06.344Z,1400
2022-09-16T06:35:46.808Z,1436
2022-09-16T06:36:27.400Z,1520
2022-09-16T06:37:07.843Z,1636
2022-09-16T06:37:48.430Z,1452
2022-09-16T06:44:34.067Z,2564
2022-09-16T06:45:14.636Z,2564
2022-09-16T06:45:56.267Z,2356
2022-09-16T06:46:36.684Z,2352
2022-09-16T06:47:17.293Z,9896
2022-09-16T06:47:57.835Z,9880
2022-09-16T06:51:31.949Z,1928
2022-09-16T06:52:12.976Z,2168
2022-09-16T06:52:53.570Z,2408
2022-09-16T06:53:35.435Z,2668
2022-09-16T06:54:15.983Z,2532
2022-09-16T06:54:56.536Z,3488
2022-09-16T06:59:02.293Z,10460
2022-09-16T06:59:42.333Z,12636
2022-09-16T07:00:22.825Z,12140
2022-09-16T07:01:03.421Z,11588
2022-09-16T07:01:44.195Z,11620
2022-09-16T07:02:24.861Z,11256
2022-09-16T07:03:05.301Z,10928
2022-09-16T07:03:45.808Z,10656
2022-09-16T07:04:26.259Z,11176
2022-09-16T07:05:06.752Z,11536
2022-09-16T07:10:47.825Z,3384
2022-09-16T07:11:28.821Z,4268
2022-09-16T07:12:09.334Z,3724
2022-09-16T07:12:49.891Z,3520
2022-09-16T07:18:15.050Z,5696
2022-09-16T07:19:00.124Z,5740
2022-09-16T07:19:36.168Z,5940
2022-09-16T07:20:16.711Z,5468
2022-09-16T07:20:57.255Z,3788
2022-09-16T07:21:37.736Z,3440
2022-09-16T07:22:18.318Z,3932
2022-09-16T07:22:58.836Z,3520
2022-09-16T07:23:39.365Z,2648
2022-09-16T07:29:04.886Z,2604
2022-09-16T07:29:45.412Z,2628
2022-09-16T07:30:25.971Z,2716
2022-09-16T07:31:07.093Z,3160
2022-09-16T07:31:48.325Z,3072
2022-09-16T07:32:28.862Z,3704
2022-09-16T07:33:09.519Z,4456
2022-09-16T07:33:49.895Z,5200
2022-09-16T07:39:14.857Z,3164
2022-09-16T07:39:55.380Z,3144
2022-09-16T07:40:35.924Z,3188
2022-09-16T07:41:16.383Z,3244
2022-09-16T07:42:37.653Z,3296
2022-09-16T07:43:18.233Z,3268
2022-09-16T07:43:58.669Z,3208
2022-09-16T07:44:39.156Z,3164
2022-09-16T07:45:19.725Z,3108
2022-09-16T07:50:44.910Z,2148
2022-09-16T07:51:26.233Z,2124
2022-09-16T07:52:06.946Z,2116
2022-09-16T07:52:47.390Z,2152
2022-09-16T07:53:29.441Z,2200
2022-09-16T07:54:08.470Z,2300
2022-09-16T07:54:49.053Z,2456
2022-09-16T07:55:29.555Z,2620
2022-09-16T07:56:10.065Z,2732
2022-09-16T08:01:26.286Z,3800
2022-09-16T08:02:07.454Z,3764
2022-09-16T08:02:47.919Z,3620
2022-09-16T08:03:28.510Z,3496
2022-09-16T08:04:09.084Z,3392
2022-09-16T08:04:49.471Z,3340
2022-09-16T08:11:34.909Z,3104
2022-09-16T08:12:15.419Z,3092
2022-09-16T08:12:55.899Z,2860
2022-09-16T08:13:36.446Z,2684
2022-09-16T08:14:16.951Z,2504
2022-09-16T08:14:58.267Z,2368
2022-09-16T08:15:38.846Z,2220
2022-09-16T08:16:19.448Z,2084
2022-09-16T08:25:22.839Z,2408
2022-09-16T08:26:03.390Z,2452
2022-09-16T08:26:43.812Z,2504
2022-09-16T08:27:25.075Z,2608
2022-09-16T08:28:05.610Z,2556
2022-09-16T08:29:04.883Z,2484
2022-09-16T08:29:26.562Z,2420
2022-09-16T08:30:07.060Z,2320
2022-09-16T08:30:51.248Z,2372
2022-09-16T08:37:32.771Z,3004
2022-09-16T08:38:13.281Z,2912
2022-09-16T08:38:53.888Z,2940
2022-09-16T08:39:34.310Z,3040
2022-09-16T08:40:14.943Z,3148
2022-09-16T08:40:55.359Z,3128
2022-09-16T08:41:36.874Z,3076
2022-09-16T08:42:18.945Z,3020
2022-09-16T08:48:26.370Z,2332
2022-09-16T08:49:03.436Z,2316
2022-09-16T08:49:45.655Z,2296
2022-09-16T08:50:24.616Z,2260
2022-09-16T08:51:05.151Z,2252
2022-09-16T08:51:45.666Z,2252
2022-09-16T08:52:26.156Z,2216
2022-09-16T08:53:06.669Z,2224
2022-09-16T08:53:47.124Z,2292
2022-09-16T08:54:27.623Z,2356
2022-09-16T09:01:13.019Z,2184
2022-09-16T09:01:53.933Z,2068
2022-09-16T09:02:35.123Z,1820
2022-09-16T09:03:15.400Z,1636
2022-09-16T09:03:55.949Z,1588
2022-09-16T09:04:36.407Z,1520
2022-09-16T09:05:16.937Z,1468
2022-09-16T09:05:57.560Z,1536
2022-09-16T09:11:22.632Z,1964
2022-09-16T09:14:57.060Z,2192
2022-09-16T09:15:37.760Z,2184
2022-09-16T09:16:19.140Z,2152
2022-09-16T09:16:59.686Z,1880
2022-09-16T09:17:47.919Z,1976
2022-09-16T09:18:20.706Z,1804
2022-09-16T09:19:01.285Z,1904
2022-09-16T09:19:41.848Z,2248
2022-09-16T09:25:06.983Z,2668
2022-09-16T09:25:47.515Z,2612
2022-09-16T09:26:28.017Z,2720
2022-09-16T09:27:08.512Z,3100
2022-09-16T09:27:49.039Z,2804
2022-09-16T09:28:29.541Z,2632
2022-09-16T09:29:10.094Z,2516
2022-09-16T09:29:50.609Z,2476
2022-09-16T09:30:31.067Z,2604
2022-09-16T09:31:11.687Z,2536
2022-09-16T09:36:36.877Z,1932
2022-09-16T09:37:17.264Z,1884
2022-09-16T09:37:57.827Z,1856
2022-09-16T09:38:38.467Z,1852
2022-09-16T09:39:19.655Z,1832
2022-09-16T09:40:00.375Z,1804
2022-09-16T09:40:40.683Z,1776
2022-09-16T09:41:21.761Z,1736
2022-09-16T09:48:07.052Z,1920
2022-09-16T09:48:48.120Z,1936
2022-09-16T09:49:28.676Z,1960
2022-09-16T09:52:37.788Z,2060
2022-09-16T09:53:18.224Z,2152
2022-09-16T09:53:58.695Z,2076
2022-09-16T09:54:39.419Z,2076
2022-09-16T09:55:19.885Z,1876
2022-09-16T09:56:00.368Z,1824
2022-09-16T09:56:41.501Z,1992
2022-09-16T09:57:22.986Z,1680
2022-09-16T10:02:07.790Z,2140
2022-09-16T10:02:49.976Z,2388
2022-09-16T10:06:02.320Z,1704
2022-09-16T10:06:42.880Z,1780
2022-09-16T10:07:23.332Z,1864
2022-09-16T10:08:03.989Z,1888
2022-09-16T10:08:44.380Z,1868
2022-09-16T10:09:24.937Z,1840
2022-09-16T10:10:05.396Z,1792
2022-09-16T10:10:46.139Z,1744
2022-09-16T10:11:26.632Z,1772
2022-09-16T10:18:12.745Z,2056
2022-09-16T10:18:53.247Z,2304
2022-09-16T10:19:33.751Z,1956
2022-09-16T10:20:14.213Z,1720
2022-09-16T10:20:54.729Z,1448
2022-09-16T10:21:35.218Z,1532
2022-09-16T10:22:15.719Z,1524
2022-09-16T10:22:56.299Z,1560
2022-09-16T10:23:36.945Z,1656
2022-09-16T10:29:17.502Z,1756
2022-09-16T10:29:58.009Z,1676
2022-09-16T10:30:38.654Z,1528
2022-09-16T10:31:19.238Z,1640
2022-09-16T10:31:59.852Z,1744
2022-09-16T10:32:40.512Z,1464
2022-09-16T10:33:21.171Z,1700
2022-09-16T10:34:01.735Z,1824
2022-09-16T10:34:42.285Z,1812
2022-09-16T10:41:35.206Z,1900
2022-09-16T10:42:15.565Z,1808
2022-09-16T10:42:56.115Z,1436
2022-09-16T10:43:36.658Z,1460
2022-09-16T10:44:17.813Z,1372
2022-09-16T10:44:58.058Z,1352
2022-09-16T10:48:15.613Z,1840
2022-09-16T10:48:55.444Z,1792
2022-09-16T10:49:36.954Z,1792
2022-09-16T10:50:17.640Z,1720
2022-09-16T10:50:58.142Z,1656
2022-09-16T10:51:38.940Z,1464
2022-09-16T10:55:20.664Z,1264
2022-09-16T10:56:01.191Z,1328
2022-09-16T10:56:42.951Z,1384
2022-09-16T10:57:23.295Z,1404
2022-09-16T10:58:03.836Z,1528
2022-09-16T10:58:44.325Z,1560
2022-09-16T10:59:24.814Z,1512
2022-09-16T11:00:05.455Z,1456
2022-09-16T11:00:46.030Z,1440
2022-09-16T11:06:10.771Z,864
2022-09-16T11:06:51.858Z,828
2022-09-16T11:07:32.490Z,816
2022-09-16T11:08:13.643Z,1352
2022-09-16T11:08:54.134Z,1432
2022-09-16T11:09:34.901Z,1516
2022-09-16T11:10:15.125Z,1464
2022-09-16T11:17:01.826Z,1376
2022-09-16T11:17:41.565Z,1372
2022-09-16T11:18:22.704Z,1384
2022-09-16T11:19:03.207Z,1444
2022-09-16T11:19:43.687Z,1548
2022-09-16T11:20:24.207Z,1704
2022-09-16T11:21:04.852Z,1788
2022-09-16T11:21:45.326Z,1896
2022-09-16T11:22:25.825Z,1880
2022-09-16T11:27:51.105Z,1100
2022-09-16T11:28:31.454Z,1144
2022-09-16T11:29:12.060Z,1184
2022-09-16T11:29:52.387Z,1308
2022-09-16T11:30:33.660Z,1380
2022-09-16T11:31:14.178Z,1396
2022-09-16T11:31:56.067Z,1456
2022-09-16T11:35:20.657Z,1556
2022-09-16T11:36:01.173Z,1456
2022-09-16T11:36:41.683Z,1368
2022-09-16T11:37:23.313Z,1288
2022-09-16T11:38:03.971Z,1272
2022-09-16T11:38:45.518Z,1344
2022-09-16T11:39:24.976Z,1380
2022-09-16T11:42:39.274Z,1296
2022-09-16T11:43:20.754Z,1184
2022-09-16T11:44:01.233Z,1056
2022-09-16T11:44:42.083Z,956
2022-09-16T11:45:22.621Z,860
2022-09-16T11:46:03.624Z,756
2022-09-16T11:51:29.126Z,844
2022-09-16T11:52:10.018Z,864
2022-09-16T11:52:50.743Z,892
2022-09-16T11:53:34.067Z,912
2022-09-16T12:32:42.005Z,604
2022-09-16T12:33:24.838Z,500
2022-09-16T12:34:06.121Z,420
2022-09-16T12:34:47.276Z,360
2022-09-16T12:38:30.015Z,544
2022-09-16T12:39:10.468Z,600
2022-09-16T12:39:51.098Z,648
2022-09-16T12:40:31.680Z,676
2022-09-16T12:41:17.131Z,700
2022-09-16T12:44:30.873Z,800
2022-09-16T12:44:57.274Z,840
2022-09-16T12:45:39.440Z,836
2022-09-16T12:46:20.895Z,852
2022-09-16T12:47:01.198Z,856
2022-09-16T12:53:05.870Z,764
2022-09-16T12:53:46.386Z,780
2022-09-16T12:54:27.166Z,824
2022-09-16T12:55:08.709Z,872
2022-09-16T12:55:48.201Z,912
2022-09-16T13:00:06.835Z,696
2022-09-16T13:00:49.176Z,692
2022-09-16T13:01:30.009Z,700
2022-09-16T13:02:10.799Z,724
2022-09-16T13:02:51.193Z,732
2022-09-16T13:05:34.830Z,720
2022-09-16T13:06:15.346Z,712
2022-09-16T13:06:55.844Z,696
2022-09-16T13:07:36.315Z,680
2022-09-16T13:08:16.780Z,648
2022-09-16T13:08:57.244Z,624
2022-09-16T13:09:37.724Z,596
2022-09-16T13:10:19.119Z,580
2022-09-16T13:11:18.441Z,564
2022-09-16T13:12:23.927Z,552
2022-09-16T13:18:24.822Z,544
2022-09-16T13:19:05.654Z,580
2022-09-16T13:19:46.032Z,612
2022-09-16T13:20:26.526Z,648
2022-09-16T13:21:07.029Z,668
2022-09-16T13:21:47.557Z,688
2022-09-16T13:22:28.041Z,692
2022-09-16T13:23:08.646Z,704
2022-09-16T13:23:49.156Z,708
2022-09-16T13:24:29.702Z,720
2022-09-16T13:25:10.139Z,724
2022-09-16T13:31:14.988Z,904
2022-09-16T13:32:35.919Z,1040
2022-09-16T13:33:16.427Z,1112
2022-09-16T13:33:57.131Z,1188
2022-09-16T13:34:37.835Z,1248
2022-09-16T13:35:18.158Z,1292
2022-09-16T13:35:58.735Z,1328
2022-09-16T13:36:39.146Z,1356
2022-09-16T13:37:19.611Z,1388
2022-09-16T13:38:00.089Z,1416
2022-09-16T13:46:08.824Z,1492
2022-09-16T13:46:57.336Z,1448
2022-09-16T13:47:44.758Z,1528
2022-09-16T13:48:34.279Z,1596
2022-09-16T13:49:21.441Z,1612
2022-09-16T13:50:02.645Z,1648
2022-09-16T13:51:23.428Z,1688
2022-09-16T13:52:03.945Z,1704
2022-09-16T13:52:44.394Z,1724
2022-09-16T13:53:24.892Z,1748
2022-09-16T13:54:05.357Z,1760
2022-09-16T13:55:06.609Z,1768
2022-09-16T13:55:26.276Z,1764
2022-09-16T13:56:06.749Z,1764
2022-09-16T13:56:47.237Z,1760
2022-09-16T13:57:27.728Z,1768
2022-09-16T13:58:08.186Z,1768
2022-09-16T14:05:33.555Z,1612
2022-09-16T14:06:13.927Z,1540
2022-09-16T14:06:54.413Z,1560
2022-09-16T14:07:34.878Z,1556
2022-09-16T14:08:16.114Z,1616
2022-09-16T14:08:56.594Z,1664
2022-09-16T14:09:37.068Z,1632
2022-09-16T14:10:17.547Z,1532
2022-09-16T14:11:38.503Z,1540
2022-09-16T14:18:23.289Z,1276
2022-09-16T14:19:03.761Z,1260
2022-09-16T14:19:44.229Z,1240
2022-09-16T14:20:24.705Z,1224
2022-09-16T14:21:05.289Z,1208
2022-09-16T14:21:45.705Z,1196
2022-09-16T14:22:26.181Z,1184
2022-09-16T14:23:06.650Z,1172
2022-09-16T14:23:47.157Z,1164
2022-09-16T14:24:27.627Z,1156
2022-09-16T14:25:19.450Z,1152
2022-09-16T14:25:50.095Z,1140
2022-09-16T14:32:33.305Z,1192
2022-09-16T14:33:13.769Z,1196
2022-09-16T14:33:55.812Z,1212
2022-09-16T14:34:34.763Z,1228
2022-09-16T14:35:16.027Z,1228
2022-09-16T14:35:56.459Z,1212
2022-09-16T14:36:37.074Z,1188
2022-09-16T14:37:17.412Z,1184
2022-09-16T14:37:57.915Z,1212
2022-09-16T14:38:46.698Z,1264
2022-09-16T14:47:07.323Z,1056
2022-09-16T14:47:51.475Z,1168
2022-09-16T14:48:35.836Z,1224
2022-09-16T14:49:18.982Z,1276
2022-09-16T14:49:59.485Z,1360
2022-09-16T14:50:39.997Z,1412
2022-09-16T14:51:20.454Z,1444
2022-09-16T14:52:01.045Z,1440
2022-09-16T14:52:41.402Z,1388
2022-09-16T14:53:24.199Z,1344
2022-09-16T15:00:47.212Z,1084
2022-09-16T15:01:27.704Z,1068
2022-09-16T15:02:08.194Z,1024
2022-09-16T15:02:48.677Z,980
2022-09-16T15:03:29.128Z,940
2022-09-16T15:04:09.615Z,896
2022-09-16T15:04:50.137Z,876
2022-09-16T15:05:30.560Z,868
2022-09-16T15:06:11.051Z,868
2022-09-16T15:07:34.033Z,888
2022-09-16T15:14:17.397Z,840
2022-09-16T15:14:57.217Z,864
2022-09-16T15:15:37.786Z,856
2022-09-16T15:16:18.227Z,824
2022-09-16T15:16:58.630Z,804
2022-09-16T15:17:39.138Z,796
2022-09-16T15:18:19.575Z,792
2022-09-16T15:19:00.152Z,808
2022-09-16T15:19:40.588Z,828
2022-09-16T15:20:21.015Z,844
2022-09-16T15:21:01.493Z,832
2022-09-16T15:21:41.980Z,812
2022-09-16T15:29:07.224Z,620
2022-09-16T15:29:47.675Z,624
2022-09-16T15:30:28.158Z,616
2022-09-16T15:31:08.723Z,600
2022-09-16T15:31:49.127Z,580
2022-09-16T15:32:29.634Z,560
2022-09-16T15:33:10.111Z,540
2022-09-16T15:33:50.633Z,520
2022-09-16T15:34:31.073Z,512
2022-09-16T15:35:11.552Z,500
2022-09-16T15:35:52.039Z,496
2022-09-16T15:43:17.188Z,492
2022-09-16T15:43:57.650Z,488
2022-09-16T15:44:38.104Z,488
2022-09-16T15:45:18.577Z,492
2022-09-16T15:45:59.144Z,500
2022-09-16T15:46:39.634Z,508
2022-09-16T15:47:20.005Z,516
2022-09-16T15:48:00.503Z,520
2022-09-16T15:48:40.934Z,516
2022-09-16T15:49:21.415Z,520
2022-09-16T15:50:01.860Z,516
2022-09-16T15:50:42.340Z,516
2022-09-16T15:57:27.094Z,536
2022-09-16T15:58:07.574Z,544
2022-09-16T15:58:48.071Z,548
2022-09-16T15:59:28.553Z,540
2022-09-16T16:00:09.088Z,536
2022-09-16T16:00:49.489Z,532
2022-09-16T16:01:29.975Z,524
2022-09-16T16:02:10.493Z,568
2022-09-16T16:02:50.952Z,616
2022-09-16T16:03:31.407Z,624
2022-09-16T16:04:11.890Z,632
2022-09-16T16:11:37.113Z,696
2022-09-16T16:12:17.581Z,700
2022-09-16T16:12:58.086Z,700
2022-09-16T16:13:38.564Z,696
2022-09-16T16:14:19.022Z,692
2022-09-16T16:14:59.519Z,684
2022-09-16T16:15:40.085Z,668
2022-09-16T16:16:20.501Z,652
2022-09-16T16:17:12.575Z,616
2022-09-16T16:17:41.417Z,576
2022-09-16T16:18:21.894Z,572
2022-09-16T16:26:27.424Z,612
2022-09-16T16:27:07.883Z,612
2022-09-16T16:27:48.402Z,592
2022-09-16T16:28:28.834Z,596
2022-09-16T16:29:09.297Z,552
2022-09-16T16:29:49.782Z,556
2022-09-16T16:30:30.247Z,556
2022-09-16T16:31:10.771Z,556
2022-09-16T16:31:51.196Z,524
2022-09-16T16:32:31.685Z,520
2022-09-16T16:33:12.189Z,512
2022-09-16T16:40:37.566Z,456
2022-09-16T16:41:17.912Z,456
2022-09-16T16:41:58.404Z,452
2022-09-16T16:42:38.943Z,448
2022-09-16T16:43:19.380Z,440
2022-09-16T16:43:59.866Z,436
2022-09-16T16:44:40.284Z,436
2022-09-16T16:45:20.784Z,428
2022-09-16T16:48:41.140Z,404
2022-09-16T16:49:28.619Z,400
2022-09-16T16:50:10.120Z,396
2022-09-16T16:50:50.589Z,392
2022-09-16T16:51:31.062Z,384
2022-09-16T16:57:35.386Z,352
2022-09-16T16:58:15.833Z,344
2022-09-16T16:58:56.358Z,344
2022-09-16T16:59:36.861Z,340
2022-09-16T17:00:17.294Z,340
2022-09-16T17:00:57.766Z,340
2022-09-16T17:01:38.268Z,344
2022-09-16T17:02:18.737Z,344
2022-09-16T17:02:59.322Z,344
2022-09-16T17:03:39.644Z,344
2022-09-16T17:04:20.154Z,344
2022-09-16T17:05:00.598Z,344
2022-09-16T17:11:45.410Z,304
2022-09-16T17:12:25.780Z,300
2022-09-16T17:13:06.277Z,296
2022-09-16T17:13:46.730Z,288
2022-09-16T17:14:27.242Z,276
2022-09-16T17:15:07.663Z,268
2022-09-16T17:15:48.198Z,264
2022-09-16T17:16:28.698Z,260
2022-09-16T17:17:09.093Z,252
2022-09-16T17:18:30.093Z,240
2022-09-16T17:19:10.534Z,236
2022-09-16T17:25:55.310Z,176
2022-09-16T17:26:35.765Z,168
2022-09-16T17:27:16.391Z,164
2022-09-16T17:27:56.801Z,156
2022-09-16T17:28:37.220Z,152
2022-09-16T17:29:17.701Z,144
2022-09-16T17:29:58.148Z,140
2022-09-16T17:30:38.629Z,132
2022-09-16T17:31:19.143Z,124
2022-09-16T17:31:59.554Z,120
2022-09-16T17:32:40.041Z,116
2022-09-16T17:40:05.343Z,64
2022-09-16T17:40:45.788Z,60
2022-09-16T17:41:26.245Z,56
2022-09-16T17:42:06.718Z,52
2022-09-16T17:42:47.293Z,48
2022-09-16T17:43:31.459Z,44
2022-09-16T17:44:08.185Z,44
2022-09-16T17:44:48.630Z,40
2022-09-16T17:46:09.624Z,32
2022-09-16T17:46:50.062Z,32
2022-09-16T17:47:30.540Z,28
2022-09-16T18:34:30.058Z,0
2022-09-16T18:35:06.814Z,0
2022-09-16T18:35:47.337Z,0
2022-09-16T18:36:27.773Z,0
2022-09-16T18:37:08.264Z,0
2022-09-16T18:37:48.726Z,0
2022-09-16T18:38:29.169Z,0
2022-09-16T18:39:09.633Z,0
2022-09-16T18:39:50.132Z,0
2022-09-16T18:41:11.018Z,0
2022-09-16T18:41:51.612Z,0
2022-09-16T18:42:31.992Z,0
2022-09-16T18:49:57.348Z,0
2022-09-16T18:50:37.682Z,0
2022-09-16T18:51:18.214Z,0
2022-09-16T18:51:58.697Z,0
2022-09-16T18:52:39.167Z,0
2022-09-16T18:53:19.617Z,0
2022-09-16T18:54:00.130Z,0
2022-09-16T18:54:40.629Z,0
2022-09-16T18:55:21.131Z,0
2022-09-16T18:56:01.619Z,0
2022-09-16T18:56:42.137Z,0
2022-09-16T19:03:27.099Z,0
2022-09-16T19:04:07.578Z,0
2022-09-16T19:04:48.043Z,0
2022-09-16T19:05:28.674Z,0
2022-09-16T19:06:09.055Z,0
2022-09-16T19:06:49.502Z,0
2022-09-16T19:07:29.972Z,0
2022-09-16T19:08:10.422Z,0
2022-09-16T19:08:50.899Z,0
2022-09-16T19:09:31.389Z,0
2022-09-16T19:10:11.845Z,0
2022-09-16T19:17:37.124Z,0
2022-09-16T19:18:17.598Z,0
2022-09-16T19:18:58.041Z,0
2022-09-16T19:19:38.558Z,0
2022-09-16T19:20:19.090Z,0
2022-09-16T19:20:59.697Z,0
2022-09-16T19:21:40.111Z,0
2022-09-16T19:22:20.680Z,0
2022-09-16T19:23:01.123Z,0
2022-09-16T19:23:41.604Z,0
2022-09-16T19:24:22.055Z,0
2022-09-16T19:31:47.366Z,0
2022-09-16T19:32:27.937Z,0
2022-09-16T19:33:08.302Z,0
2022-09-16T19:33:48.806Z,0
2022-09-16T19:34:29.263Z,0
2022-09-16T19:35:09.815Z,0
2022-09-16T19:35:50.197Z,0
2022-09-16T19:36:30.874Z,0
2022-09-16T19:37:11.238Z,0
2022-09-16T19:37:51.687Z,0
2022-09-16T19:38:32.248Z,0
2022-09-16T19:45:57.464Z,0
2022-09-16T19:46:37.889Z,0
2022-09-16T19:47:18.371Z,0
2022-09-16T19:47:58.872Z,0
2022-09-16T19:48:39.336Z,0
2022-09-16T19:49:19.915Z,0
2022-09-16T19:50:00.308Z,0
2022-09-16T19:50:44.448Z,0
2022-09-16T19:51:21.306Z,0
2022-09-16T19:52:01.879Z,0
2022-09-16T19:52:42.231Z,0
2022-09-16T19:59:27.091Z,0
2022-09-16T20:00:07.545Z,0
2022-09-16T20:00:56.059Z,0
2022-09-16T20:01:28.595Z,0
2022-09-16T20:02:08.960Z,0
2022-09-16T20:02:49.518Z,0
2022-09-16T20:03:29.880Z,0
2022-09-16T20:04:10.343Z,0
2022-09-16T20:04:50.886Z,0
2022-09-16T20:05:31.307Z,0
2022-09-16T20:06:11.810Z,0
2022-09-16T20:06:52.262Z,0
2022-09-16T20:14:17.472Z,0
2022-09-16T20:14:57.932Z,0
2022-09-16T20:15:38.448Z,0
2022-09-16T20:16:18.905Z,0
2022-09-16T20:16:59.442Z,0
2022-09-16T20:17:39.866Z,0
2022-09-16T20:18:20.360Z,0
2022-09-16T20:19:00.825Z,0